Aérodrome :
LOGIN :

S'inscrire | Disclaimer

   EN    FR    IT 

 










Légende :    VFR   VFR Marginal   IFR   IFR Intensif   IFR Très Intensif
Visi : 
Plafond : 
>= 8 km
>= 3000ft
5 à 8 km
1000 à 3000 ft
1500m à 5 km
500 à 1000 ft
800 à 1500m
200 à 500 ft
< 800m
< 200 ft
Symboles :   Orages  Brouillard  Fortes neiges  Fortes précipitations  Vent > 20 kt
SIGMETs :   Divers  Orages  Givrage  Turbulence  Onde Orograph.  Cendres Volcan.






- Altitude de l'aérodrome : 416 ft
- Code IATA : OVD


LEAS - Asturias

DERNIER METAR :
  • 212030Z 10006KT 070V150 9999 FEW038 SCT047 OVC050 07/05 Q1029 NOSIG

METARs EXPIRÉS :
  • 212000Z 11007KT 080V160 9999 FEW031 BKN045 BKN050 07/05 Q1029 NOSIG
  • 211930Z 11009KT 080V160 9999 FEW027 BKN030 BKN035 07/04 Q1029 NOSIG
  • 211900Z 10008KT 070V140 9999 FEW023 SCT030 OVC058 07/04 Q1029 NOSIG
  • 211830Z 11008KT 080V160 9999 FEW037 SCT041 BKN047 07/04 Q1029 NOSIG
  • 211800Z 10009KT 080V160 9999 FEW034 SCT045 BKN050 07/04 Q1029 NOSIG

TAF TAF LEAS
Valide du 21 à 21h jusqu'au 22 à 21h UTC


212000Z 2121/2221 10009KT 9999 SCT020 BKN025 TX11/2214Z TN05/2203Z
PROB30
TEMPO 2121/2212 3000 -RA BKN014
TEMPO 2212/2215 10015G25KT
PROB40
TEMPO 2209/2218 3000 RA BKN010



MET'MAP, la Météo Aéronautique d'un coup d'oeil ! - Copyright ORBIFLY Décembre 2007 - Disclaimer

ORBIFLY MET'MAP TEAM :

Programmation & Développement : Alexandra Zaïnal
Sur une idée originale de : Baudouin d'Aumeries
Assistance à la programmation : Marc-Olivier Méhu
Soutien technique & logistique : Manuel Goepfert

Contact : metmap@orbifly.com




SOURCES & CREDITS :

   NOAA